Time;durP1;ratioP1;P1;durP2;ratioP2;P2;SDS_P1;SDS_P2;PMS_P1;PMS_P2;Temp;Humidity;BMP_temperature;BMP_pressure;BME280_temperature;BME280_humidity;BME280_pressure;Samples;Min_cycle;Max_cycle;Signal;HPM_P1;HPM_P2
2022/09/10 00:00:03;;;;;;;;;;;;;;;26.71;33.63;100724.75;5053703;28;1072;-39
2022/09/10 00:02:29;;;;;;;;;;;;;;;26.64;33.93;100724.63;5054622;28;1103;-40
2022/09/10 00:04:54;;;;;;;;;;;;;;;26.68;33.83;100717.81;5048530;28;973;-40
2022/09/10 00:07:19;;;;;;;;;;;;;;;26.61;33.81;100722.28;5055918;28;1959;-40
2022/09/10 00:09:45;;;;;;;;;;;;;;;26.63;34.23;100715.69;5055191;28;1175;-40
2022/09/10 00:12:10;;;;;;;;;;;;;;;26.59;34.76;100711.66;5056988;28;1080;-41
2022/09/10 00:14:35;;;;;;;;;;;;;;;26.59;34.88;100708.94;5046820;28;974;-41
2022/09/10 00:17:01;;;;;;;;;;;;;;;26.74;36.04;100710.88;5041641;28;946;-42
2022/09/10 00:19:27;;;;;;;;;;;;;;;26.93;36.56;100716.78;5052275;28;1178;-41
2022/09/10 00:21:52;;;;;;;;;;;;;;;26.98;34.92;100717.91;5048307;28;1289;-43
2022/09/10 00:24:17;;;;;;;;;;;;;;;27.00;35.06;100723.13;5053586;28;1036;-42
2022/09/10 00:26:43;;;;;;;;;;;;;;;27.06;34.63;100727.81;5041051;28;1151;-42
2022/09/10 00:29:09;;;;;;;;;;;;;;;27.00;34.56;100723.13;5050227;28;1910;-40
2022/09/10 00:31:35;;;;;;;;;;;;;;;26.88;36.18;100725.41;5054629;28;1159;-42
2022/09/10 00:34:00;;;;;;;;;;;;;;;26.96;35.32;100724.53;5049310;28;1166;-42
2022/09/10 00:36:31;;;;;;;;;;;;;;;26.94;35.87;100718.47;5044356;28;1009;-44
2022/09/10 00:38:57;;;;;;;;;;;;;;;26.91;35.17;100716.97;5052442;28;1268;-42
2022/09/10 00:41:23;;;;;;;;;;;;;;;26.92;38.70;100720.50;5050565;28;1078;-42
2022/09/10 00:43:53;;;;;;;;;;;;;;;26.94;35.39;100700.41;5049933;28;1128;-41
2022/09/10 00:46:24;;;;;;;;;;;;;;;26.93;37.35;100706.81;5051032;28;1008;-42
2022/09/10 00:48:51;;;;;;;;;;;;;;;26.94;35.46;100713.06;5050062;28;1969;-43
2022/09/10 00:51:16;;;;;;;;;;;;;;;26.99;35.53;100705.25;5044508;28;1215;-43
2022/09/10 00:53:42;;;;;;;;;;;;;;;27.01;35.17;100705.91;5036315;28;1062;-42
2022/09/10 00:56:07;;;;;;;;;;;;;;;27.06;36.74;100703.53;5048642;28;1045;-41
2022/09/10 00:58:32;;;;;;;;;;;;;;;26.80;34.84;100703.91;5053126;28;1047;-42
2022/09/10 01:00:58;;;;;;;;;;;;;;;26.01;34.61;100698.50;5052063;28;981;-41
2022/09/10 01:03:24;;;;;;;;;;;;;;;25.93;35.06;100696.69;5053120;28;1089;-42
2022/09/10 01:05:49;;;;;;;;;;;;;;;26.19;35.98;100692.88;5054655;28;1594;-41
2022/09/10 01:08:15;;;;;;;;;;;;;;;26.53;36.51;100686.25;5053652;28;1977;-42
2022/09/10 01:10:57;;;;;;;;;;;;;;;26.70;34.75;100688.81;5056345;28;1005;-40
2022/09/10 01:13:32;;;;;;;;;;;;;;;26.76;33.85;100684.53;5048214;28;1056;-43
2022/09/10 01:16:18;;;;;;;;;;;;;;;26.81;38.86;100687.53;5043309;28;1561;-42
2022/09/10 01:18:46;;;;;;;;;;;;;;;26.64;34.84;100684.16;5039896;28;1232;-42
2022/09/10 01:21:26;;;;;;;;;;;;;;;26.56;34.17;100682.34;5051925;28;981;-42
2022/09/10 01:23:57;;;;;;;;;;;;;;;26.46;34.17;100689.84;5052029;28;984;-42
2022/09/10 01:26:28;;;;;;;;;;;;;;;26.50;33.93;100686.63;5041080;28;1017;-41
2022/09/10 01:28:53;;;;;;;;;;;;;;;26.53;33.91;100678.16;5053835;28;2002;-42
2022/09/10 01:31:30;;;;;;;;;;;;;;;26.40;34.00;100673.38;5055176;28;1017;-42
2022/09/10 01:34:18;;;;;;;;;;;;;;;26.59;33.65;100676.56;5050165;28;1170;-42
2022/09/10 01:36:44;;;;;;;;;;;;;;;26.37;34.20;100667.50;5003370;28;1293;-42
2022/09/10 01:39:09;;;;;;;;;;;;;;;26.20;34.45;100661.34;5051161;28;1147;-42
2022/09/10 01:41:35;;;;;;;;;;;;;;;26.32;34.40;100659.06;5048095;28;1331;-41
2022/09/10 01:44:12;;;;;;;;;;;;;;;26.39;34.31;100657.38;5050250;28;1313;-41
2022/09/10 01:46:40;;;;;;;;;;;;;;;26.48;33.75;100660.81;5048381;28;1271;-42
2022/09/10 01:49:24;;;;;;;;;;;;;;;26.48;33.94;100664.38;5052331;28;1910;-41
2022/09/10 01:51:50;;;;;;;;;;;;;;;26.50;34.07;100665.03;5051913;28;1079;-42
2022/09/10 01:54:27;;;;;;;;;;;;;;;26.41;34.01;100653.47;5048788;28;1131;-41
2022/09/10 01:57:05;;;;;;;;;;;;;;;26.40;34.57;100657.19;5046759;28;1096;-41
2022/09/10 01:59:58;;;;;;;;;;;;;;;26.49;33.47;100657.13;5052699;28;1183;-42
2022/09/10 02:02:25;;;;;;;;;;;;;;;26.41;34.57;100655.31;5052597;28;1253;-42
2022/09/10 02:04:51;;;;;;;;;;;;;;;26.41;34.55;100650.75;5042778;28;1048;-42
2022/09/10 02:07:16;;;;;;;;;;;;;;;26.44;34.27;100646.88;5046970;28;1963;-42
2022/09/10 02:09:42;;;;;;;;;;;;;;;26.49;34.05;100646.34;5047920;28;1076;-42
2022/09/10 02:12:07;;;;;;;;;;;;;;;26.51;33.98;100647.81;5047739;28;1052;-42
2022/09/10 02:14:32;;;;;;;;;;;;;;;26.46;34.28;100638.59;5044192;28;1175;-42
2022/09/10 02:16:58;;;;;;;;;;;;;;;26.55;34.08;100639.34;5052502;28;1164;-42
2022/09/10 02:19:23;;;;;;;;;;;;;;;26.51;34.25;100639.72;5052503;28;1041;-42
2022/09/10 02:21:49;;;;;;;;;;;;;;;26.37;34.62;100637.81;5052993;28;1167;-42
2022/09/10 02:24:14;;;;;;;;;;;;;;;26.37;34.69;100646.78;5053773;28;1089;-41
2022/09/10 02:26:40;;;;;;;;;;;;;;;26.46;34.02;100644.81;5053945;28;1120;-41
2022/09/10 02:29:05;;;;;;;;;;;;;;;26.38;34.77;100636.78;5044138;28;1914;-42
2022/09/10 02:31:31;;;;;;;;;;;;;;;26.45;34.38;100635.06;5053412;28;973;-42
2022/09/10 02:33:56;;;;;;;;;;;;;;;26.36;34.94;100626.19;5052664;28;1147;-42
2022/09/10 02:36:24;;;;;;;;;;;;;;;26.39;34.99;100628.53;5053339;28;1016;-43
2022/09/10 02:38:50;;;;;;;;;;;;;;;26.38;35.13;100632.25;5053475;28;1131;-42
2022/09/10 02:41:15;;;;;;;;;;;;;;;26.36;34.55;100633.47;5055083;28;869;-42
2022/09/10 02:43:41;;;;;;;;;;;;;;;26.32;35.06;100635.66;5049060;28;941;-42
2022/09/10 02:46:07;;;;;;;;;;;;;;;26.33;34.88;100637.34;5045398;28;1472;-42
2022/09/10 02:48:32;;;;;;;;;;;;;;;26.33;34.60;100640.03;5046767;28;1959;-41
2022/09/10 02:50:57;;;;;;;;;;;;;;;26.36;35.02;100636.16;5051059;28;1012;-42
2022/09/10 02:53:22;;;;;;;;;;;;;;;26.47;34.66;100637.56;5041008;28;1964;-40
2022/09/10 02:55:48;;;;;;;;;;;;;;;26.39;36.46;100633.91;5047294;28;2792;-41
2022/09/10 02:58:14;;;;;;;;;;;;;;;26.39;36.24;100631.22;5053941;28;1992;-42
2022/09/10 03:00:39;;;;;;;;;;;;;;;26.33;37.57;100634.66;5043680;28;1979;-42
2022/09/10 03:03:04;;;;;;;;;;;;;;;26.35;37.17;100629.06;5049266;28;1932;-42
2022/09/10 03:05:30;;;;;;;;;;;;;;;26.36;37.48;100626.19;5049607;28;1793;-41
2022/09/10 03:07:56;;;;;;;;;;;;;;;26.48;42.77;100625.75;5047745;28;1895;-40
2022/09/10 03:10:22;;;;;;;;;;;;;;;26.36;46.20;100626.19;5040405;28;2094;-39
2022/09/10 03:12:47;;;;;;;;;;;;;;;26.04;49.87;100634.31;5053388;28;1562;-39
2022/09/10 03:15:13;;;;;;;;;;;;;;;25.96;53.21;100626.28;5045402;28;1183;-39
2022/09/10 03:17:38;;;;;;;;;;;;;;;25.86;54.51;100621.13;5051970;28;846;-39
2022/09/10 03:20:04;;;;;;;;;;;;;;;25.97;54.50;100627.13;5048323;28;1238;-40
2022/09/10 03:22:30;;;;;;;;;;;;;;;25.99;52.51;100622.41;5055232;28;969;-38
2022/09/10 03:24:57;;;;;;;;;;;;;;;25.95;52.94;100632.69;5042922;28;1155;-40
2022/09/10 03:27:22;;;;;;;;;;;;;;;25.94;53.78;100627.47;5056430;28;1906;-42
2022/09/10 03:29:48;;;;;;;;;;;;;;;25.92;54.40;100628.47;5050774;28;1143;-42
2022/09/10 03:32:13;;;;;;;;;;;;;;;25.70;54.78;100631.97;5049443;28;958;-39
2022/09/10 03:34:38;;;;;;;;;;;;;;;25.80;54.92;100635.31;5052777;28;1004;-38
2022/09/10 03:37:04;;;;;;;;;;;;;;;25.87;54.82;100638.13;5048161;28;1087;-40
2022/09/10 03:39:30;;;;;;;;;;;;;;;25.82;54.78;100637.81;5045174;28;1830;-40
2022/09/10 03:41:55;;;;;;;;;;;;;;;25.74;55.87;100634.13;5043182;28;1124;-41
2022/09/10 03:44:21;;;;;;;;;;;;;;;25.75;56.05;100638.53;5054649;28;1047;-40
2022/09/10 03:46:47;;;;;;;;;;;;;;;25.75;56.26;100640.38;5056112;28;1273;-40
2022/09/10 03:49:12;;;;;;;;;;;;;;;25.76;55.82;100642.91;5054915;28;1964;-39
2022/09/10 03:51:38;;;;;;;;;;;;;;;25.77;55.64;100649.97;5057605;28;1139;-39
2022/09/10 03:54:04;;;;;;;;;;;;;;;25.78;55.40;100646.25;5051123;28;917;-40
2022/09/10 03:56:30;;;;;;;;;;;;;;;25.78;55.98;100656.19;5045014;28;973;-39
2022/09/10 03:58:56;;;;;;;;;;;;;;;25.79;54.82;100649.81;5047951;28;1154;-42
2022/09/10 04:01:21;;;;;;;;;;;;;;;25.94;54.71;100649.03;5053696;28;1032;-41
2022/09/10 04:03:46;;;;;;;;;;;;;;;26.03;54.80;100640.72;5051820;28;997;-43
2022/09/10 04:06:12;;;;;;;;;;;;;;;26.07;54.90;100648.44;5049489;28;886;-43
2022/09/10 04:08:37;;;;;;;;;;;;;;;25.95;55.57;100646.16;5053830;28;1902;-43
2022/09/10 04:11:03;;;;;;;;;;;;;;;26.12;54.60;100643.38;5054407;28;1008;-43
2022/09/10 04:13:28;;;;;;;;;;;;;;;26.24;54.23;100644.63;5052725;28;2454;-42
2022/09/10 04:15:54;;;;;;;;;;;;;;;26.43;51.15;100647.88;5054656;28;1824;-38
2022/09/10 04:18:19;;;;;;;;;;;;;;;26.48;51.01;100647.34;5046698;28;1974;-39
2022/09/10 04:20:46;;;;;;;;;;;;;;;26.54;50.36;100654.72;5042556;28;1828;-42
2022/09/10 04:23:11;;;;;;;;;;;;;;;26.50;50.32;100648.84;5044292;28;2109;-39
2022/09/10 04:25:36;;;;;;;;;;;;;;;26.58;50.51;100649.78;5051154;28;2022;-39
2022/09/10 04:28:02;;;;;;;;;;;;;;;26.63;50.04;100658.16;5047388;28;1924;-40
2022/09/10 04:30:27;;;;;;;;;;;;;;;26.70;49.67;100652.88;5052505;28;2250;-39
2022/09/10 04:32:53;;;;;;;;;;;;;;;26.70;49.66;100655.59;5056280;28;1080;-43
2022/09/10 04:35:20;;;;;;;;;;;;;;;26.67;49.72;100651.41;5057150;28;1064;-42
2022/09/10 04:37:45;;;;;;;;;;;;;;;26.69;49.75;100653.91;5048949;28;1000;-42
2022/09/10 04:40:11;;;;;;;;;;;;;;;26.69;49.15;100660.16;5046347;28;1044;-41
2022/09/10 04:42:37;;;;;;;;;;;;;;;26.77;49.16;100660.09;5051040;28;830;-41
2022/09/10 04:45:02;;;;;;;;;;;;;;;26.83;48.96;100658.50;5052598;28;1147;-40
2022/09/10 04:47:28;;;;;;;;;;;;;;;26.81;48.77;100662.41;5052990;28;1972;-40
2022/09/10 04:49:53;;;;;;;;;;;;;;;26.81;48.79;100652.44;5050481;28;1084;-41
2022/09/10 04:52:21;;;;;;;;;;;;;;;26.72;48.80;100661.66;5048399;28;985;-42
2022/09/10 04:54:46;;;;;;;;;;;;;;;26.84;48.73;100665.56;5037396;28;1115;-42
2022/09/10 04:57:12;;;;;;;;;;;;;;;26.86;48.87;100663.53;5043350;28;985;-40
2022/09/10 04:59:37;;;;;;;;;;;;;;;26.92;48.77;100658.41;5045812;28;1786;-42
2022/09/10 05:02:02;;;;;;;;;;;;;;;26.91;47.08;100665.66;5046143;28;984;-41
2022/09/10 05:04:28;;;;;;;;;;;;;;;26.96;46.58;100662.44;5047215;28;1012;-41
2022/09/10 05:06:53;;;;;;;;;;;;;;;26.96;46.31;100668.66;5049435;28;1226;-40
2022/09/10 05:09:18;;;;;;;;;;;;;;;26.97;46.35;100669.50;5049129;28;1902;-42
2022/09/10 05:11:45;;;;;;;;;;;;;;;27.00;45.97;100669.13;5048779;28;1179;-41
2022/09/10 05:14:11;;;;;;;;;;;;;;;26.95;45.24;100666.16;5048091;28;1215;-40
2022/09/10 05:16:37;;;;;;;;;;;;;;;26.93;45.02;100665.47;5045825;28;1262;-40
2022/09/10 05:19:02;;;;;;;;;;;;;;;27.02;44.88;100657.19;5048398;28;1231;-41
2022/09/10 05:21:29;;;;;;;;;;;;;;;26.98;44.66;100653.13;5052444;28;1250;-40
2022/09/10 05:23:55;;;;;;;;;;;;;;;26.99;44.43;100649.38;5046766;28;1191;-41
2022/09/10 05:26:20;;;;;;;;;;;;;;;27.01;44.25;100639.28;5047806;28;1265;-41
2022/09/10 05:28:46;;;;;;;;;;;;;;;26.93;44.25;100647.44;5048063;28;1971;-40
2022/09/10 05:31:12;;;;;;;;;;;;;;;26.97;43.86;100639.81;5048581;28;1321;-39
2022/09/10 05:33:39;;;;;;;;;;;;;;;27.05;43.74;100630.81;5045929;28;1164;-40
2022/09/10 05:36:07;;;;;;;;;;;;;;;27.03;43.95;100633.69;5048452;28;1171;-40
2022/09/10 05:38:33;;;;;;;;;;;;;;;27.05;43.55;100638.91;5047686;28;1242;-42
2022/09/10 05:40:59;;;;;;;;;;;;;;;27.07;43.12;100640.41;5050207;28;1167;-41
2022/09/10 05:43:26;;;;;;;;;;;;;;;27.10;42.99;100640.03;5050472;28;1341;-39
2022/09/10 05:45:51;;;;;;;;;;;;;;;27.20;43.17;100642.47;5046437;28;1408;-40
2022/09/10 05:48:17;;;;;;;;;;;;;;;27.22;42.88;100648.53;5049091;28;1977;-41
2022/09/10 05:50:44;;;;;;;;;;;;;;;27.23;43.06;100654.75;5046644;28;1203;-37
2022/09/10 05:53:09;;;;;;;;;;;;;;;27.28;42.93;100643.41;5047935;28;1113;-40
2022/09/10 05:55:34;;;;;;;;;;;;;;;27.26;42.78;100643.56;5051185;28;1250;-41
2022/09/10 05:58:01;;;;;;;;;;;;;;;27.24;43.25;100640.25;5049108;28;1020;-40
2022/09/10 06:00:26;;;;;;;;;;;;;;;27.32;42.96;100634.75;5045973;28;2509;-41
2022/09/10 06:02:52;;;;;;;;;;;;;;;27.23;42.99;100633.13;5044309;28;1155;-41
2022/09/10 06:05:20;;;;;;;;;;;;;;;27.26;43.06;100640.88;5050966;28;985;-40
2022/09/10 06:07:45;;;;;;;;;;;;;;;27.27;43.23;100637.16;5042104;28;1957;-41
2022/09/10 06:10:10;;;;;;;;;;;;;;;27.37;43.03;100645.81;5049005;28;994;-39
2022/09/10 06:12:36;;;;;;;;;;;;;;;27.32;42.88;100644.69;5049431;28;1087;-40
2022/09/10 06:15:02;;;;;;;;;;;;;;;27.30;42.85;100639.47;5046070;28;1036;-40
2022/09/10 06:17:27;;;;;;;;;;;;;;;27.22;43.30;100645.81;5048674;28;1064;-39
2022/09/10 06:19:53;;;;;;;;;;;;;;;27.29;43.07;100648.63;5047219;28;1468;-39
2022/09/10 06:22:18;;;;;;;;;;;;;;;27.31;42.52;100646.53;5047150;28;1334;-39
2022/09/10 06:24:48;;;;;;;;;;;;;;;27.38;42.30;100649.34;5047058;28;1069;-36
2022/09/10 06:27:13;;;;;;;;;;;;;;;27.28;42.56;100662.31;5048090;28;1961;-39
2022/09/10 06:29:38;;;;;;;;;;;;;;;27.28;42.60;100646.94;5047695;28;1731;-39
2022/09/10 06:32:04;;;;;;;;;;;;;;;27.34;42.80;100648.88;5052779;28;1047;-38
2022/09/10 06:34:29;;;;;;;;;;;;;;;27.39;42.13;100645.63;5049970;28;1309;-39
2022/09/10 06:36:57;;;;;;;;;;;;;;;27.39;42.55;100646.44;5051216;28;1519;-39
2022/09/10 06:39:22;;;;;;;;;;;;;;;27.33;43.02;100652.59;5053152;28;1115;-40
2022/09/10 06:41:47;;;;;;;;;;;;;;;27.41;42.51;100653.53;5053062;28;1198;-38
2022/09/10 06:44:13;;;;;;;;;;;;;;;27.40;42.78;100650.00;5052193;28;1032;-37
2022/09/10 06:46:38;;;;;;;;;;;;;;;27.45;42.73;100650.28;5048853;28;1313;-40
2022/09/10 06:49:03;;;;;;;;;;;;;;;27.53;42.19;100649.31;5050816;28;1955;-40
2022/09/10 06:51:29;;;;;;;;;;;;;;;27.51;42.07;100641.41;5050530;28;1270;-42
2022/09/10 06:53:54;;;;;;;;;;;;;;;27.54;42.17;100644.78;5052753;28;1211;-39
2022/09/10 06:56:20;;;;;;;;;;;;;;;27.45;42.57;100638.63;5051893;28;1246;-40
2022/09/10 06:58:45;;;;;;;;;;;;;;;27.47;42.74;100633.88;5049307;28;2197;-37
2022/09/10 07:01:11;;;;;;;;;;;;;;;27.37;41.98;100631.47;5051033;28;1249;-38
2022/09/10 07:03:36;;;;;;;;;;;;;;;27.47;41.73;100632.03;5045305;28;1135;-39
2022/09/10 07:06:02;;;;;;;;;;;;;;;27.52;42.15;100634.16;5057822;28;992;-41
2022/09/10 07:08:28;;;;;;;;;;;;;;;27.46;42.12;100638.44;5052803;28;1926;-39
2022/09/10 07:10:58;;;;;;;;;;;;;;;27.46;42.52;100649.25;5046433;28;984;-42
2022/09/10 07:13:24;;;;;;;;;;;;;;;27.32;42.47;100653.66;5051032;28;1052;-43
2022/09/10 07:15:49;;;;;;;;;;;;;;;27.28;43.16;100643.41;5044874;28;958;-42
2022/09/10 07:18:15;;;;;;;;;;;;;;;27.35;43.16;100645.16;5052762;28;1020;-42
2022/09/10 07:20:42;;;;;;;;;;;;;;;27.39;42.71;100646.44;5054548;28;1499;-42
2022/09/10 07:23:08;;;;;;;;;;;;;;;27.42;42.73;100656.06;5053895;28;1056;-42
2022/09/10 07:25:34;;;;;;;;;;;;;;;27.59;42.11;100662.06;5046294;28;1012;-41
2022/09/10 07:28:00;;;;;;;;;;;;;;;27.61;42.20;100657.34;5051260;28;1969;-41
2022/09/10 07:30:26;;;;;;;;;;;;;;;27.63;41.96;100663.38;5048600;28;1643;-41
2022/09/10 07:32:51;;;;;;;;;;;;;;;27.62;42.29;100660.88;5047081;28;1235;-42
2022/09/10 07:35:16;;;;;;;;;;;;;;;27.65;42.30;100670.47;5049535;28;1281;-41
2022/09/10 07:37:43;;;;;;;;;;;;;;;27.70;42.52;100657.25;5049051;28;1242;-41
2022/09/10 07:40:08;;;;;;;;;;;;;;;27.66;42.83;100651.34;5051732;28;1175;-41
2022/09/10 07:42:36;;;;;;;;;;;;;;;27.69;42.29;100648.31;5050646;28;1305;-41
2022/09/10 07:45:01;;;;;;;;;;;;;;;27.73;42.26;100652.31;5047395;28;1223;-42
2022/09/10 07:47:26;;;;;;;;;;;;;;;27.83;41.86;100652.00;5049892;28;1955;-42
2022/09/10 07:49:52;;;;;;;;;;;;;;;27.82;41.76;100654.91;5049009;28;1191;-42
2022/09/10 07:52:17;;;;;;;;;;;;;;;27.88;41.84;100648.72;5051268;28;1266;-42
2022/09/10 07:54:42;;;;;;;;;;;;;;;27.80;42.04;100649.69;5051991;28;1250;-42
2022/09/10 07:57:08;;;;;;;;;;;;;;;27.77;41.92;100635.72;5049669;28;1179;-42
2022/09/10 07:59:33;;;;;;;;;;;;;;;27.81;42.17;100643.25;5046158;28;1797;-42
2022/09/10 08:01:59;;;;;;;;;;;;;;;27.91;42.18;100642.13;5044185;28;1183;-43
2022/09/10 08:04:24;;;;;;;;;;;;;;;27.91;41.47;100636.72;5051575;28;1155;-41
2022/09/10 08:06:50;;;;;;;;;;;;;;;27.90;41.84;100635.03;5042138;28;1235;-42
2022/09/10 08:09:18;;;;;;;;;;;;;;;27.94;41.86;100630.91;5051177;28;1976;-41
2022/09/10 08:11:43;;;;;;;;;;;;;;;27.80;41.96;100635.31;5047728;28;1251;-41
2022/09/10 08:14:08;;;;;;;;;;;;;;;27.82;41.76;100638.69;5051026;28;969;-41
2022/09/10 08:16:35;;;;;;;;;;;;;;;27.83;41.33;100640.34;5045240;28;1041;-42
2022/09/10 08:19:00;;;;;;;;;;;;;;;27.91;40.69;100650.22;5054233;28;1162;-42
2022/09/10 08:21:28;;;;;;;;;;;;;;;27.84;41.11;100645.56;5052242;28;1242;-40
2022/09/10 08:23:54;;;;;;;;;;;;;;;27.76;41.30;100637.56;5051543;28;1183;-41
2022/09/10 08:26:22;;;;;;;;;;;;;;;27.80;41.13;100630.78;5047380;28;1160;-42
2022/09/10 08:28:47;;;;;;;;;;;;;;;27.86;41.58;100638.09;5046426;28;2457;-41
2022/09/10 08:31:13;;;;;;;;;;;;;;;27.86;41.61;100638.09;5051432;28;1194;-41
2022/09/10 08:33:38;;;;;;;;;;;;;;;27.83;41.49;100645.75;5052159;28;1409;-42
2022/09/10 08:36:04;;;;;;;;;;;;;;;27.85;40.94;100639.16;5050813;28;1212;-41
2022/09/10 08:38:33;;;;;;;;;;;;;;;27.83;40.86;100633.09;5047597;28;1310;-42
2022/09/10 08:40:59;;;;;;;;;;;;;;;27.89;41.63;100633.34;5046957;28;1199;-42
2022/09/10 08:43:35;;;;;;;;;;;;;;;27.90;41.50;100624.22;5046720;28;1353;-41
2022/09/10 08:46:01;;;;;;;;;;;;;;;27.89;41.30;100636.06;5048743;28;1105;-41
2022/09/10 08:48:26;;;;;;;;;;;;;;;27.89;40.90;100636.06;5050755;28;1914;-42
2022/09/10 08:51:11;;;;;;;;;;;;;;;27.95;40.86;100629.88;5045207;28;1168;-40
2022/09/10 08:53:40;;;;;;;;;;;;;;;28.01;40.44;100623.69;5042959;28;1005;-41
2022/09/10 08:56:08;;;;;;;;;;;;;;;27.99;40.77;100626.59;5044576;28;1037;-42
2022/09/10 08:58:38;;;;;;;;;;;;;;;27.97;40.43;100609.75;5050831;28;2316;-43
2022/09/10 09:01:04;;;;;;;;;;;;;;;27.97;40.72;100604.34;5050618;28;1199;-42
2022/09/10 09:03:36;;;;;;;;;;;;;;;28.03;40.66;100601.91;5047450;28;1282;-43
2022/09/10 09:06:03;;;;;;;;;;;;;;;28.07;41.04;100589.66;5052476;28;1005;-40
2022/09/10 09:08:28;;;;;;;;;;;;;;;28.01;40.93;100593.94;5048403;28;1910;-39
2022/09/10 09:11:13;;;;;;;;;;;;;;;28.18;40.89;100591.00;5054824;28;1127;-38
2022/09/10 09:13:50;;;;;;;;;;;;;;;28.07;41.21;100584.25;5048248;28;962;-39
2022/09/10 09:16:15;;;;;;;;;;;;;;;27.95;40.70;100589.31;5038338;28;907;-39
2022/09/10 09:18:40;;;;;;;;;;;;;;;27.94;40.01;100577.69;5050473;28;1160;-38
2022/09/10 09:21:10;;;;;;;;;;;;;;;28.14;40.80;100570.78;5044668;28;1288;-40
2022/09/10 09:23:39;;;;;;;;;;;;;;;28.18;41.17;100575.59;5046264;28;1084;-39
2022/09/10 09:26:08;;;;;;;;;;;;;;;28.17;40.52;100573.09;5038639;28;1152;-39
2022/09/10 09:28:37;;;;;;;;;;;;;;;28.34;40.15;100568.28;5035468;28;1980;-39
2022/09/10 09:31:04;;;;;;;;;;;;;;;28.26;40.27;100558.41;5048952;28;1132;-39
2022/09/10 09:33:29;;;;;;;;;;;;;;;28.16;39.53;100549.81;5048591;28;1121;-39
2022/09/10 09:35:56;;;;;;;;;;;;;;;28.21;40.28;100555.47;5041220;28;1095;-39
2022/09/10 09:38:22;;;;;;;;;;;;;;;28.27;39.70;100543.00;5047692;28;1223;-39
2022/09/10 09:40:57;;;;;;;;;;;;;;;28.14;39.41;100543.75;5048273;28;1141;-38
2022/09/10 09:43:28;;;;;;;;;;;;;;;28.17;39.89;100535.25;5042822;28;1000;-41
2022/09/10 09:45:54;;;;;;;;;;;;;;;28.25;39.94;100540.50;5043028;28;1426;-40
2022/09/10 09:48:19;;;;;;;;;;;;;;;28.18;39.85;100548.56;5053225;28;1964;-40
2022/09/10 09:50:49;;;;;;;;;;;;;;;28.33;39.76;100540.38;5044381;28;963;-39
2022/09/10 09:53:24;;;;;;;;;;;;;;;28.34;39.32;100542.06;5054149;28;1204;-40
2022/09/10 09:56:12;;;;;;;;;;;;;;;28.40;39.55;100545.84;5052980;28;1052;-40
2022/09/10 09:58:39;;;;;;;;;;;;;;;28.39;39.72;100536.06;5041807;28;1904;-40
2022/09/10 10:01:04;;;;;;;;;;;;;;;28.52;39.60;100538.03;5051051;28;993;-41
2022/09/10 10:03:53;;;;;;;;;;;;;;;28.59;39.50;100538.09;5038042;28;1274;-40
2022/09/10 10:06:23;;;;;;;;;;;;;;;28.52;39.39;100534.47;5039262;28;1009;-40
2022/09/10 10:08:53;;;;;;;;;;;;;;;28.59;39.12;100525.38;5039626;28;1975;-38
2022/09/10 10:11:19;;;;;;;;;;;;;;;28.55;40.01;100528.66;5035725;28;1177;-43
2022/09/10 10:13:51;;;;;;;;;;;;;;;28.55;39.77;100531.38;5042999;28;1208;-43
2022/09/10 10:16:21;;;;;;;;;;;;;;;28.65;39.14;100526.44;5055025;28;1047;-43
2022/09/10 10:18:47;;;;;;;;;;;;;;;28.68;39.25;100528.75;5052808;28;1157;-42
2022/09/10 10:21:15;;;;;;;;;;;;;;;28.73;39.09;100538.97;5050912;28;1139;-42
2022/09/10 10:23:41;;;;;;;;;;;;;;;28.78;38.56;100525.69;5055153;28;984;-42
2022/09/10 10:26:15;;;;;;;;;;;;;;;28.72;39.08;100526.50;5055330;28;1143;-42
2022/09/10 10:28:44;;;;;;;;;;;;;;;28.71;39.39;100516.72;5053546;28;2106;-42
2022/09/10 10:31:10;;;;;;;;;;;;;;;28.70;39.45;100521.28;5039847;28;1096;-42
2022/09/10 10:33:37;;;;;;;;;;;;;;;28.74;39.03;100519.00;5048798;28;1179;-43
2022/09/10 10:36:03;;;;;;;;;;;;;;;28.69;38.99;100553.97;5045820;28;1099;-42
2022/09/10 10:38:29;;;;;;;;;;;;;;;28.69;39.31;100516.91;5049554;28;1087;-42
2022/09/10 10:40:55;;;;;;;;;;;;;;;28.54;39.17;100506.22;5036160;28;1028;-41
2022/09/10 10:43:40;;;;;;;;;;;;;;;28.47;39.63;100503.47;5049157;28;1120;-42
2022/09/10 10:46:11;;;;;;;;;;;;;;;28.43;39.38;100504.88;5048114;28;898;-41
2022/09/10 10:48:55;;;;;;;;;;;;;;;28.48;39.67;100498.88;5055084;28;1969;-41
2022/09/10 10:51:47;;;;;;;;;;;;;;;28.38;39.41;100496.50;5054832;28;1044;-42
2022/09/10 10:54:15;;;;;;;;;;;;;;;28.39;39.62;100491.94;5018163;28;1037;-42
2022/09/10 10:56:41;;;;;;;;;;;;;;;28.40;39.75;100483.63;5052691;28;1012;-42
2022/09/10 10:59:12;;;;;;;;;;;;;;;28.43;39.63;100490.50;5053438;28;1819;-42
2022/09/10 11:01:40;;;;;;;;;;;;;;;28.44;39.85;100490.34;5053554;28;977;-42
2022/09/10 11:04:21;;;;;;;;;;;;;;;28.65;39.31;100499.38;5042211;28;1125;-41
2022/09/10 11:06:48;;;;;;;;;;;;;;;28.64;39.39;100494.19;5043878;28;1169;-41
2022/09/10 11:09:13;;;;;;;;;;;;;;;28.65;39.18;100488.56;5046369;28;1910;-41
2022/09/10 11:12:02;;;;;;;;;;;;;;;28.79;39.06;100489.47;5043384;28;1203;-42
2022/09/10 11:14:34;;;;;;;;;;;;;;;28.83;39.12;100487.19;5041490;28;1338;-40
2022/09/10 11:17:17;;;;;;;;;;;;;;;28.71;39.83;100478.81;5046325;28;1234;-42
2022/09/10 11:19:57;;;;;;;;;;;;;;;28.74;39.28;100478.41;5047923;28;1306;-42
2022/09/10 11:22:24;;;;;;;;;;;;;;;28.88;38.87;100484.72;5044678;28;1012;-42
2022/09/10 11:24:53;;;;;;;;;;;;;;;28.78;38.74;100482.38;5047086;28;1211;-43
2022/09/10 11:27:23;;;;;;;;;;;;;;;28.77;38.98;100485.28;5047169;28;1914;-42
2022/09/10 11:29:51;;;;;;;;;;;;;;;28.72;39.04;100489.44;5048188;28;1896;-41
2022/09/10 11:32:25;;;;;;;;;;;;;;;28.80;38.87;100483.03;5047796;28;1254;-42
2022/09/10 11:34:54;;;;;;;;;;;;;;;28.78;39.16;100485.09;5045711;28;1002;-41
2022/09/10 11:37:22;;;;;;;;;;;;;;;28.84;39.10;100488.88;5048812;28;1222;-42
2022/09/10 11:39:48;;;;;;;;;;;;;;;28.81;39.03;100486.56;5047095;28;1282;-42
2022/09/10 11:42:37;;;;;;;;;;;;;;;28.81;38.72;100483.88;5046548;28;1034;-42
2022/09/10 11:45:21;;;;;;;;;;;;;;;28.77;38.83;100479.88;5049018;28;1168;-41
2022/09/10 11:48:07;;;;;;;;;;;;;;;28.81;39.21;100478.44;5046906;28;1977;-42
2022/09/10 11:50:36;;;;;;;;;;;;;;;28.84;38.75;100472.63;5046647;28;1584;-42
2022/09/10 11:53:02;;;;;;;;;;;;;;;29.04;38.31;100467.31;5047255;28;1060;-42
2022/09/10 11:55:48;;;;;;;;;;;;;;;28.95;38.18;100454.97;5048517;28;1219;-42
2022/09/10 11:58:14;;;;;;;;;;;;;;;28.97;37.87;100461.03;5048398;28;1064;-41
2022/09/10 12:00:53;;;;;;;;;;;;;;;28.88;38.30;100456.81;5043900;28;2171;-42
2022/09/10 12:03:21;;;;;;;;;;;;;;;28.93;38.97;100448.91;5044346;28;1566;-42
2022/09/10 12:05:53;;;;;;;;;;;;;;;28.93;38.45;100446.19;5045438;28;1313;-41
2022/09/10 12:08:25;;;;;;;;;;;;;;;28.81;38.89;100433.25;5046642;28;1910;-41
2022/09/10 12:10:55;;;;;;;;;;;;;;;28.92;39.26;100439.13;5049320;28;1092;-42
2022/09/10 12:13:21;;;;;;;;;;;;;;;28.92;39.02;100437.25;5047594;28;1273;-42
2022/09/10 12:15:50;;;;;;;;;;;;;;;28.92;38.75;100428.28;5046860;28;1246;-42
2022/09/10 12:18:20;;;;;;;;;;;;;;;28.96;38.71;100426.84;5046624;28;1108;-43
2022/09/10 12:20:53;;;;;;;;;;;;;;;29.01;38.69;100428.97;5049620;28;1279;-42
2022/09/10 12:23:23;;;;;;;;;;;;;;;28.90;38.68;100425.78;5047219;28;1053;-42
2022/09/10 12:25:56;;;;;;;;;;;;;;;28.94;38.93;100427.06;5045839;28;1299;-42
2022/09/10 12:28:40;;;;;;;;;;;;;;;29.07;39.84;100423.59;5046029;28;1977;-42
2022/09/10 12:31:06;;;;;;;;;;;;;;;28.92;39.53;100418.31;5046439;28;1058;-41
2022/09/10 12:33:31;;;;;;;;;;;;;;;28.98;39.94;100408.53;5046970;28;1322;-41
2022/09/10 12:35:57;;;;;;;;;;;;;;;29.02;39.44;100407.13;5051417;28;1328;-41
2022/09/10 12:38:41;;;;;;;;;;;;;;;29.06;40.13;100405.66;5047794;28;1312;-41
2022/09/10 12:41:35;;;;;;;;;;;;;;;27.80;46.79;100409.13;5048619;28;1270;-42
2022/09/10 12:44:03;;;;;;;;;;;;;;;27.64;47.42;100412.94;5047077;28;1250;-40
2022/09/10 12:46:51;;;;;;;;;;;;;;;28.08;45.78;100415.56;5044977;28;1205;-41
2022/09/10 12:49:16;;;;;;;;;;;;;;;27.73;47.25;100411.78;5017773;28;1991;-39
2022/09/10 12:51:48;;;;;;;;;;;;;;;27.70;48.02;100398.66;5046674;28;1294;-41